Time;durP1;ratioP1;P1;durP2;ratioP2;P2;SDS_P1;SDS_P2;PMS_P1;PMS_P2;Temp;Humidity;BMP_temperature;BMP_pressure;BME280_temperature;BME280_humidity;BME280_pressure;Samples;Min_cycle;Max_cycle;Signal;HPM_P1;HPM_P2
2022/06/17 00:00:18;;;;;;;6.13;5.53;;;13.90;99.90;;;;;;5006417;28;20041;-72
2022/06/17 00:02:44;;;;;;;10.52;6.20;;;13.80;99.90;;;;;;5019818;28;20715;-73
2022/06/17 00:05:12;;;;;;;9.73;6.22;;;13.70;99.90;;;;;;5001879;28;20033;-73
2022/06/17 00:07:42;;;;;;;8.98;5.65;;;13.70;99.90;;;;;;5020694;28;20578;-73
2022/06/17 00:10:26;;;;;;;8.27;6.30;;;13.60;99.90;;;;;;5022380;28;20509;-73
2022/06/17 00:12:52;;;;;;;9.30;6.22;;;13.60;99.90;;;;;;5010558;28;20108;-73
2022/06/17 00:15:20;;;;;;;12.07;6.53;;;13.50;99.90;;;;;;5031246;28;20030;-73
2022/06/17 00:17:52;;;;;;;9.32;6.10;;;13.50;99.90;;;;;;5018949;28;20037;-73
2022/06/17 00:20:25;;;;;;;8.45;6.07;;;13.50;99.90;;;;;;5030356;28;20038;-73
2022/06/17 00:22:57;;;;;;;9.38;6.03;;;13.40;99.90;;;;;;5001816;28;20550;-73
2022/06/17 00:25:24;;;;;;;10.55;6.35;;;13.40;99.90;;;;;;5028926;28;20041;-73
2022/06/17 00:28:00;;;;;;;8.85;6.40;;;13.40;99.90;;;;;;5015280;28;20563;-73
2022/06/17 00:30:29;;;;;;;7.88;6.30;;;13.30;99.90;;;;;;5010031;28;20053;-73
2022/06/17 00:33:05;;;;;;;8.25;6.10;;;13.30;99.90;;;;;;5003240;28;20562;-73
2022/06/17 00:35:45;;;;;;;10.25;6.57;;;13.30;99.90;;;;;;5020238;28;20041;-73
2022/06/17 00:38:21;;;;;;;9.70;6.72;;;13.30;99.90;;;;;;5030145;28;20053;-73
2022/06/17 00:40:48;;;;;;;8.90;6.22;;;13.30;99.90;;;;;;5015797;28;20041;-73
2022/06/17 00:43:27;;;;;;;9.57;6.25;;;13.20;99.90;;;;;;5029971;28;20037;-73
2022/06/17 00:46:08;;;;;;;10.10;7.30;;;13.20;99.90;;;;;;5016307;28;20060;-73
2022/06/17 00:48:46;;;;;;;8.52;6.60;;;13.20;99.90;;;;;;5017002;28;20562;-73
2022/06/17 00:51:28;;;;;;;7.30;6.53;;;13.20;99.90;;;;;;5020151;28;20038;-73
2022/06/17 00:54:14;;;;;;;11.85;7.55;;;13.20;99.90;;;;;;5023899;28;20505;-73
2022/06/17 00:56:46;;;;;;;9.88;7.43;;;13.20;99.90;;;;;;5018682;28;20244;-73
2022/06/17 00:59:14;;;;;;;9.00;7.45;;;13.20;99.90;;;;;;4985658;28;20038;-73
2022/06/17 01:02:10;;;;;;;12.63;8.40;;;13.20;99.90;;;;;;5005004;28;20096;-72
2022/06/17 01:04:42;;;;;;;13.20;7.80;;;13.20;99.90;;;;;;5020303;28;20414;-73
2022/06/17 01:07:15;;;;;;;11.52;8.25;;;13.20;99.90;;;;;;5005870;28;20520;-73
2022/06/17 01:10:04;;;;;;;11.98;8.55;;;13.30;99.90;;;;;;5009045;28;20634;-73
2022/06/17 01:12:56;;;;;;;9.90;7.15;;;13.20;99.90;;;;;;5001652;28;20046;-73
2022/06/17 01:15:29;;;;;;;9.70;6.72;;;13.30;99.90;;;;;;5016720;28;20030;-73
2022/06/17 01:17:56;;;;;;;;;;;13.30;99.90;;;;;;5024764;28;20045;-73
2022/06/17 01:20:28;;;;;;;10.35;8.02;;;13.20;99.90;;;;;;5027497;28;19924;-73
2022/06/17 01:22:57;;;;;;;16.42;7.82;;;13.20;99.90;;;;;;5030894;28;20045;-73
2022/06/17 01:25:30;;;;;;;13.77;8.40;;;13.20;99.90;;;;;;5010338;28;20041;-73
2022/06/17 01:28:15;;;;;;;10.88;8.07;;;13.20;99.90;;;;;;5027867;28;20081;-73
2022/06/17 01:30:46;;;;;;;12.00;8.35;;;13.20;99.90;;;;;;5014337;28;20049;-73
2022/06/17 01:33:30;;;;;;;9.63;8.35;;;13.20;99.90;;;;;;5031056;28;20088;-73
2022/06/17 01:36:08;;;;;;;12.98;7.55;;;13.20;99.90;;;;;;5013633;28;20402;-73
2022/06/17 01:38:42;;;;;;;9.20;7.90;;;13.20;99.90;;;;;;5046608;28;20080;-73
2022/06/17 01:41:09;;;;;;;11.95;7.93;;;13.20;99.90;;;;;;5012895;28;20029;-73
2022/06/17 01:43:59;;;;;;;10.10;7.55;;;13.20;99.90;;;;;;5027724;28;20092;-73
2022/06/17 01:46:40;;;;;;;12.65;8.10;;;13.20;99.90;;;;;;5028530;28;20048;-73
2022/06/17 01:49:21;;;;;;;9.48;7.55;;;13.50;99.90;;;;;;5029819;28;20057;-73
2022/06/17 01:52:11;;;;;;;10.13;7.53;;;13.10;99.90;;;;;;5026572;28;20041;-74
2022/06/17 01:55:12;;;;;;;9.63;7.28;;;13.10;99.90;;;;;;5019519;28;20057;-73
2022/06/17 01:58:08;;;;;;;10.40;7.32;;;13.10;99.90;;;;;;5014504;28;20107;-74
2022/06/17 02:00:41;;;;;;;10.50;7.05;;;13.10;99.90;;;;;;5032018;28;20051;-73
2022/06/17 02:03:21;;;;;;;11.40;7.50;;;13.10;99.90;;;;;;5012126;28;20045;-73
2022/06/17 02:06:12;;;;;;;9.60;7.20;;;13.10;99.90;;;;;;5013181;28;20041;-73
2022/06/17 02:08:59;;;;;;;12.30;7.68;;;13.10;99.90;;;;;;5012292;28;20499;-73
2022/06/17 02:11:30;;;;;;;9.32;7.07;;;13.00;99.90;;;;;;5027539;28;20414;-73
2022/06/17 02:14:09;;;;;;;8.60;7.32;;;13.00;99.90;;;;;;5013473;28;20063;-73
2022/06/17 02:16:49;;;;;;;9.43;7.47;;;13.00;99.90;;;;;;5014142;28;20041;-74
2022/06/17 02:19:15;;;;;;;8.10;6.90;;;12.90;99.90;;;;;;5030060;28;20037;-73
2022/06/17 02:21:55;;;;;;;12.25;6.78;;;12.90;99.90;;;;;;4996348;28;20077;-74
2022/06/17 02:24:26;;;;;;;9.07;6.75;;;12.90;99.90;;;;;;4996985;28;20388;-74
2022/06/17 02:26:58;;;;;;;8.80;7.32;;;12.80;99.90;;;;;;5026070;28;20103;-73
2022/06/17 02:29:37;;;;;;;9.40;7.00;;;12.80;99.90;;;;;;5016126;28;20060;-74
2022/06/17 02:32:12;;;;;;;9.45;7.30;;;12.80;99.90;;;;;;5027648;28;20048;-73
2022/06/17 02:35:14;;;;;;;12.65;7.18;;;12.80;99.90;;;;;;5032710;28;20269;-73
2022/06/17 02:37:47;;;;;;;11.77;7.25;;;12.80;99.90;;;;;;5029108;28;20037;-73
2022/06/17 02:40:33;;;;;;;10.70;7.55;;;12.80;99.90;;;;;;4996521;28;20120;-74
2022/06/17 02:43:06;;;;;;;9.07;7.43;;;12.80;99.90;;;;;;5030818;28;20041;-73
2022/06/17 02:45:39;;;;;;;10.57;7.20;;;12.80;99.90;;;;;;5028075;28;20045;-73
2022/06/17 02:48:21;;;;;;;9.43;6.78;;;12.80;99.90;;;;;;5011080;28;20042;-73
2022/06/17 02:51:06;;;;;;;11.05;7.15;;;12.80;99.90;;;;;;5030096;28;20041;-74
2022/06/17 02:53:37;;;;;;;8.85;7.03;;;12.80;99.90;;;;;;5029179;28;20490;-73
2022/06/17 02:56:17;;;;;;;10.13;7.70;;;12.80;99.90;;;;;;5028474;28;20057;-73
2022/06/17 02:59:21;;;;;;;11.13;7.05;;;12.80;99.90;;;;;;5027178;28;20410;-73
2022/06/17 03:05:26;;;;;;;12.77;7.80;;;12.80;99.90;;;;;;5025721;28;20407;-74
2022/06/17 03:07:56;;;;;;;9.75;7.97;;;12.90;99.90;;;;;;5027774;28;20473;-74
2022/06/17 03:10:32;;;;;;;12.40;7.38;;;12.90;99.90;;;;;;5012251;28;20112;-74
2022/06/17 03:13:22;;;;;;;9.05;6.72;;;12.90;99.90;;;;;;5027677;28;20030;-74
2022/06/17 03:16:09;;;;;;;10.80;7.78;;;12.90;99.90;;;;;;5023822;28;20068;-74
2022/06/17 03:18:55;;;;;;;10.98;6.95;;;13.00;99.90;;;;;;5025513;28;20045;-74
2022/06/17 03:21:26;;;;;;;8.80;6.75;;;13.00;99.90;;;;;;5008477;28;20062;-74
2022/06/17 03:24:46;;;;;;;9.27;6.90;;;13.00;99.90;;;;;;5022035;28;20034;-74
2022/06/17 03:27:37;;;;;;;10.52;7.10;;;13.10;99.90;;;;;;5025738;28;20045;-74
2022/06/17 03:30:10;;;;;;;10.57;6.95;;;13.10;99.90;;;;;;5027708;28;20038;-74
2022/06/17 03:32:40;;;;;;;9.38;7.20;;;13.10;99.90;;;;;;5010484;28;20053;-74
2022/06/17 03:35:22;;;;;;;10.95;7.45;;;13.10;99.90;;;;;;5029003;28;20095;-74
2022/06/17 03:38:27;;;;;;;9.63;7.70;;;13.20;99.90;;;;;;5026953;28;20067;-74
2022/06/17 03:40:59;;;;;;;8.73;7.20;;;13.20;99.90;;;;;;4975822;28;20035;-74
2022/06/17 03:43:31;;;;;;;14.57;8.10;;;13.20;99.90;;;;;;5007878;28;20503;-74
2022/06/17 03:46:19;;;;;;;14.00;8.02;;;13.30;99.90;;;;;;5046693;28;20501;-74
2022/06/17 03:49:34;;;;;;;9.10;7.15;;;13.40;99.90;;;;;;5029035;28;20483;-74
2022/06/17 03:52:10;;;;;;;9.60;7.80;;;13.40;99.90;;;;;;5010600;28;20049;-74
2022/06/17 03:54:39;;;;;;;13.15;7.53;;;13.40;99.90;;;;;;5027015;28;20495;-74
2022/06/17 03:57:10;;;;;;;9.57;7.40;;;13.50;99.90;;;;;;5010532;28;20047;-74
2022/06/17 03:59:44;;;;;;;10.60;8.10;;;13.60;99.90;;;;;;5023459;28;20057;-74
2022/06/17 04:02:15;;;;;;;9.68;7.47;;;13.70;99.90;;;;;;4996096;28;20538;-74
2022/06/17 04:04:44;;;;;;;11.43;7.75;;;13.70;99.90;;;;;;5023972;28;20041;-74
2022/06/17 04:07:14;;;;;;;10.68;7.70;;;13.80;99.90;;;;;;5025195;28;20045;-74
2022/06/17 04:09:46;;;;;;;10.32;7.63;;;13.80;99.90;;;;;;5022354;28;20037;-74
2022/06/17 04:12:12;;;;;;;;;;;13.90;99.90;;;;;;5025986;28;20518;-74
2022/06/17 04:14:46;;;;;;;9.90;8.25;;;13.90;99.90;;;;;;5007990;28;19917;-74
2022/06/17 04:17:17;;;;;;;12.40;8.05;;;14.00;99.90;;;;;;5022854;28;20479;-75
2022/06/17 04:20:21;;;;;;;12.60;8.02;;;14.00;99.90;;;;;;5022984;28;20029;-74
2022/06/17 04:22:55;;;;;;;13.35;8.07;;;14.00;99.90;;;;;;5026486;28;20140;-74
2022/06/17 04:25:57;;;;;;;12.82;8.23;;;14.10;99.90;;;;;;5029271;28;20043;-74
2022/06/17 04:28:49;;;;;;;14.30;8.40;;;14.10;99.90;;;;;;5024392;28;20045;-74
2022/06/17 04:31:24;;;;;;;12.05;8.88;;;14.20;99.90;;;;;;5026296;28;20107;-74
2022/06/17 04:34:02;;;;;;;11.20;8.20;;;14.20;99.90;;;;;;5029338;28;20049;-74
2022/06/17 04:36:45;;;;;;;12.20;8.45;;;14.30;99.90;;;;;;5029541;28;20081;-75
2022/06/17 04:39:37;;;;;;;;;;;14.40;99.90;;;;;;5029291;28;20131;-74
2022/06/17 04:42:06;;;;;;;11.02;8.52;;;14.40;99.90;;;;;;5014802;28;19917;-74
2022/06/17 04:44:32;;;;;;;12.73;8.77;;;14.50;99.90;;;;;;5012840;28;20040;-75
2022/06/17 04:47:22;;;;;;;16.10;8.57;;;14.70;99.90;;;;;;5029229;28;20037;-74
2022/06/17 04:49:56;;;;;;;13.10;8.38;;;14.80;99.90;;;;;;5012199;28;20052;-74
2022/06/17 04:52:34;;;;;;;12.80;8.50;;;14.80;99.90;;;;;;5033837;28;20048;-74
2022/06/17 04:55:01;;;;;;;13.68;8.55;;;14.90;99.90;;;;;;5027932;28;20049;-73
2022/06/17 04:57:29;;;;;;;13.65;8.27;;;15.00;99.90;;;;;;5030852;28;20037;-74
2022/06/17 05:03:16;;;;;;;13.77;8.07;;;15.10;99.90;;;;;;5031369;28;20045;-74
2022/06/17 05:05:45;;;;;;;12.57;8.35;;;15.20;99.90;;;;;;5033199;28;20044;-74
2022/06/17 05:08:16;;;;;;;15.73;8.48;;;15.30;99.90;;;;;;5017082;28;20080;-74
2022/06/17 05:10:46;;;;;;;13.17;8.83;;;15.30;99.90;;;;;;5031475;28;20212;-74
2022/06/17 05:13:43;;;;;;;12.65;9.15;;;15.40;99.90;;;;;;5030746;28;20128;-74
2022/06/17 05:16:12;;;;;;;13.57;8.32;;;15.40;99.90;;;;;;5029233;28;20195;-75
2022/06/17 05:18:38;;;;;;;12.45;8.25;;;15.50;99.90;;;;;;5047404;28;20037;-74
2022/06/17 05:21:07;;;;;;;11.40;9.30;;;15.50;99.90;;;;;;5029956;28;20094;-75
2022/06/17 05:23:35;;;;;;;13.25;9.88;;;15.50;99.90;;;;;;5034560;28;20053;-75
2022/06/17 05:26:01;;;;;;;12.32;9.25;;;15.60;99.90;;;;;;5029939;28;20077;-74
2022/06/17 05:28:27;;;;;;;12.98;8.90;;;15.60;99.90;;;;;;5029371;28;20075;-74
2022/06/17 05:30:56;;;;;;;12.43;9.70;;;15.70;99.90;;;;;;4999676;28;20041;-74
2022/06/17 05:33:23;;;;;;;12.40;9.57;;;15.70;99.90;;;;;;5029101;28;20041;-74
2022/06/17 05:35:49;;;;;;;12.15;8.93;;;15.80;99.90;;;;;;5026665;28;20033;-74
2022/06/17 05:38:14;;;;;;;15.30;9.75;;;15.90;99.90;;;;;;5045172;28;20113;-74
2022/06/17 05:40:45;;;;;;;11.30;8.48;;;15.90;99.90;;;;;;5010949;28;20148;-74
2022/06/17 05:43:11;;;;;;;12.27;9.45;;;16.00;99.90;;;;;;5014524;28;20128;-75
2022/06/17 05:45:38;;;;;;;10.63;8.55;;;16.10;99.90;;;;;;5012846;28;20056;-75
2022/06/17 05:48:04;;;;;;;12.70;8.18;;;16.10;99.90;;;;;;5029644;28;20046;-74
2022/06/17 05:50:30;;;;;;;10.93;8.10;;;16.20;99.90;;;;;;5029802;28;20050;-74
2022/06/17 05:53:02;;;;;;;13.48;8.20;;;16.20;99.90;;;;;;5022924;28;20111;-74
2022/06/17 05:55:31;;;;;;;14.13;8.80;;;16.30;99.90;;;;;;5011690;28;20045;-74
2022/06/17 05:57:59;;;;;;;13.90;9.32;;;16.40;99.90;;;;;;5007405;28;20041;-74
2022/06/17 06:00:38;;;;;;;14.02;9.50;;;16.40;99.90;;;;;;5020557;28;20053;-75
2022/06/17 06:03:08;;;;;;;13.95;8.73;;;16.40;99.90;;;;;;5001117;28;20210;-75
2022/06/17 06:05:35;;;;;;;13.45;8.38;;;16.40;99.90;;;;;;5031173;28;20050;-75
2022/06/17 06:08:04;;;;;;;11.65;8.25;;;16.50;99.90;;;;;;5011725;28;20046;-75
2022/06/17 06:10:43;;;;;;;12.25;8.15;;;16.50;99.90;;;;;;5021592;28;20502;-75
2022/06/17 06:13:22;;;;;;;14.30;8.85;;;16.50;99.90;;;;;;5021615;28;20418;-78
2022/06/17 06:15:55;;;;;;;11.15;8.73;;;16.60;99.90;;;;;;5020286;28;20040;-78
2022/06/17 06:18:25;;;;;;;12.00;8.27;;;16.60;99.90;;;;;;5038632;28;20045;-77
2022/06/17 06:20:51;;;;;;;11.82;8.38;;;16.60;99.90;;;;;;5010777;28;20045;-77
2022/06/17 06:23:17;;;;;;;16.58;9.13;;;16.70;99.90;;;;;;5011021;28;20053;-77
2022/06/17 06:25:43;;;;;;;14.43;8.80;;;16.70;99.90;;;;;;5048274;28;20521;-77
2022/06/17 06:28:15;;;;;;;14.05;9.05;;;16.80;99.90;;;;;;5019321;28;20123;-77
2022/06/17 06:30:41;;;;;;;10.23;8.20;;;16.80;99.90;;;;;;5021740;28;20041;-77
2022/06/17 06:33:09;;;;;;;12.05;9.13;;;16.90;99.90;;;;;;5024138;28;20418;-77
2022/06/17 06:35:38;;;;;;;14.57;8.80;;;16.90;99.90;;;;;;5041002;28;20079;-77
2022/06/17 06:38:05;;;;;;;17.95;9.82;;;17.00;99.90;;;;;;5021361;28;20028;-77
2022/06/17 06:40:31;;;;;;;16.58;8.57;;;17.00;99.90;;;;;;5005153;28;20041;-78
2022/06/17 06:42:58;;;;;;;20.80;8.73;;;17.00;99.90;;;;;;5009047;28;20048;-78
2022/06/17 06:45:31;;;;;;;11.55;8.90;;;17.10;99.90;;;;;;5033446;28;20204;-77
2022/06/17 06:47:59;;;;;;;11.02;8.73;;;17.10;99.90;;;;;;5028108;28;20042;-78
2022/06/17 06:50:28;;;;;;;14.48;8.13;;;17.20;99.90;;;;;;5031665;28;20049;-77
2022/06/17 06:52:54;;;;;;;12.60;9.23;;;17.30;99.90;;;;;;5050728;28;20465;-80
2022/06/17 06:55:20;;;;;;;10.95;8.88;;;17.30;99.90;;;;;;4988512;28;20130;-81
2022/06/17 06:57:55;;;;;;;12.20;9.00;;;17.40;99.90;;;;;;5047688;28;20519;-80
2022/06/17 07:00:26;;;;;;;14.23;8.82;;;17.50;99.90;;;;;;5029817;28;20422;-80
2022/06/17 07:02:51;;;;;;;13.70;9.30;;;17.60;99.90;;;;;;5027135;28;20037;-80
2022/06/17 07:05:18;;;;;;;17.67;9.38;;;17.70;99.90;;;;;;5011687;28;20045;-80
2022/06/17 07:07:44;;;;;;;9.90;7.47;;;17.70;99.90;;;;;;5006799;28;20049;-75
2022/06/17 07:10:14;;;;;;;14.30;9.32;;;17.90;99.90;;;;;;5015193;28;20345;-75
2022/06/17 07:12:40;;;;;;;14.00;9.88;;;18.10;99.90;;;;;;5018851;28;20129;-75
2022/06/17 07:15:07;;;;;;;14.00;8.32;;;18.40;99.90;;;;;;5006883;28;20055;-76
2022/06/17 07:17:33;;;;;;;18.23;9.35;;;18.70;99.90;;;;;;5028574;28;20120;-76
2022/06/17 07:19:59;;;;;;;14.90;8.80;;;18.90;99.90;;;;;;5016936;28;20120;-76
2022/06/17 07:22:24;;;;;;;35.28;22.38;;;19.10;99.90;;;;;;5007723;28;20045;-77
2022/06/17 07:24:50;;;;;;;13.60;7.63;;;19.20;99.90;;;;;;4996088;28;20056;-75
2022/06/17 07:27:16;;;;;;;15.55;7.82;;;19.30;99.90;;;;;;5002616;28;20040;-77
2022/06/17 07:29:42;;;;;;;12.98;7.22;;;19.40;99.90;;;;;;5020936;28;20037;-73
2022/06/17 07:32:08;;;;;;;13.20;7.05;;;19.40;99.90;;;;;;5002978;28;20045;-73
2022/06/17 07:34:34;;;;;;;15.90;7.40;;;19.50;99.90;;;;;;5022733;28;20101;-73
2022/06/17 07:39:56;;;;;;;11.55;6.60;;;19.80;99.90;;;;;;5014192;28;20070;-72
2022/06/17 07:42:37;;;;;;;10.88;7.10;;;20.00;99.90;;;;;;5011756;28;20052;-73
2022/06/17 07:45:23;;;;;;;8.30;6.15;;;20.20;99.90;;;;;;5018285;28;20037;-73
2022/06/17 07:47:54;;;;;;;19.30;6.68;;;20.40;99.90;;;;;;5009523;28;20483;-73
2022/06/17 07:50:24;;;;;;;10.70;6.40;;;20.50;99.90;;;;;;5018400;28;20033;-73
2022/06/17 07:52:50;;;;;;;8.38;5.78;;;20.50;99.90;;;;;;5022092;28;20180;-73
2022/06/17 07:55:16;;;;;;;13.00;6.10;;;20.60;99.90;;;;;;5017509;28;20042;-73
2022/06/17 07:57:42;;;;;;;9.40;6.45;;;20.80;99.90;;;;;;5009817;28;20030;-73
2022/06/17 08:00:16;;;;;;;11.77;6.68;;;20.90;99.90;;;;;;5022683;28;20040;-74
2022/06/17 08:02:42;;;;;;;7.18;5.72;;;20.90;99.90;;;;;;5013811;28;20045;-74
2022/06/17 08:05:08;;;;;;;10.35;6.57;;;21.00;99.90;;;;;;5042153;28;20039;-75
2022/06/17 08:07:34;;;;;;;11.43;6.00;;;21.10;99.90;;;;;;5016528;28;20120;-74
2022/06/17 08:09:59;;;;;;;10.85;6.03;;;21.20;99.90;;;;;;5027486;28;20057;-74
2022/06/17 08:12:25;;;;;;;7.10;5.85;;;21.30;99.90;;;;;;5011208;28;20042;-74
2022/06/17 08:14:54;;;;;;;10.88;6.43;;;21.60;99.90;;;;;;5009433;28;20045;-74
2022/06/17 08:17:24;;;;;;;11.85;6.40;;;21.90;99.90;;;;;;5028231;28;20069;-76
2022/06/17 08:19:52;;;;;;;9.35;5.75;;;22.20;99.70;;;;;;5038178;28;20041;-75
2022/06/17 08:22:21;;;;;;;15.52;6.05;;;22.40;99.60;;;;;;5027029;28;20080;-74
2022/06/17 08:24:46;;;;;;;7.75;6.20;;;22.60;97.60;;;;;;5011112;28;20042;-74
2022/06/17 08:27:12;;;;;;;8.32;5.53;;;22.50;98.00;;;;;;5014466;28;20067;-74
2022/06/17 08:29:38;;;;;;;9.43;5.57;;;22.40;97.60;;;;;;4993031;28;20042;-75
2022/06/17 08:34:51;;;;;;;13.60;6.10;;;22.20;97.70;;;;;;5025907;28;20037;-74
2022/06/17 08:37:17;;;;;;;5.93;4.93;;;22.20;98.10;;;;;;5040638;28;20043;-75
2022/06/17 08:39:46;;;;;;;32.65;19.67;;;22.30;98.30;;;;;;5038348;28;20125;-77
2022/06/17 08:42:35;;;;;;;15.57;7.32;;;22.40;98.20;;;;;;5025223;28;20049;-75
2022/06/17 08:45:00;;;;;;;12.23;8.57;;;22.40;97.60;;;;;;5002886;28;20116;-77
2022/06/17 08:47:33;;;;;;;11.40;7.82;;;22.40;97.50;;;;;;5013349;28;20073;-76
2022/06/17 08:50:11;;;;;;;8.23;5.60;;;22.60;97.60;;;;;;5013874;28;20049;-75
2022/06/17 08:52:46;;;;;;;8.05;5.50;;;22.80;97.30;;;;;;5035889;28;20048;-77
2022/06/17 08:55:17;;;;;;;7.30;4.80;;;23.00;96.70;;;;;;5016287;28;20056;-78
2022/06/17 08:57:43;;;;;;;7.30;5.37;;;23.30;96.70;;;;;;5013689;28;20042;-79
2022/06/17 09:00:21;;;;;;;8.25;4.80;;;23.60;96.90;;;;;;5017811;28;20619;-79
2022/06/17 09:03:10;;;;;;;6.22;4.85;;;23.80;96.70;;;;;;5022581;28;20045;-77
2022/06/17 09:05:35;;;;;;;8.35;4.95;;;23.90;95.80;;;;;;5028218;28;20045;-78
2022/06/17 09:08:43;;;;;;;9.23;5.22;;;23.90;95.80;;;;;;5008640;28;20391;-76
2022/06/17 09:11:33;;;;;;;9.00;4.72;;;23.90;94.70;;;;;;5022655;28;20049;-76
2022/06/17 09:14:20;;;;;;;7.65;4.97;;;23.80;94.20;;;;;;5030949;28;20072;-74
2022/06/17 09:17:04;;;;;;;7.40;4.68;;;23.60;94.10;;;;;;5026750;28;20030;-75
2022/06/17 09:19:33;;;;;;;7.15;4.28;;;23.60;94.90;;;;;;5031185;28;20042;-74
2022/06/17 09:22:18;;;;;;;7.68;4.72;;;23.50;95.00;;;;;;5001975;28;20514;-76
2022/06/17 09:24:45;;;;;;;7.93;4.60;;;23.40;94.70;;;;;;5035399;28;20138;-72
2022/06/17 09:27:23;;;;;;;7.55;4.47;;;23.40;95.00;;;;;;4999632;28;20045;-72
2022/06/17 09:30:00;;;;;;;7.50;4.35;;;23.40;95.10;;;;;;5012841;28;20061;-73
2022/06/17 09:32:30;;;;;;;7.18;4.13;;;23.40;95.30;;;;;;5021412;28;20033;-74
2022/06/17 09:35:36;;;;;;;8.73;4.80;;;23.50;95.60;;;;;;5022012;28;20037;-77
2022/06/17 09:38:21;;;;;;;7.50;4.40;;;23.40;95.30;;;;;;5037480;28;20048;-72
2022/06/17 09:41:04;;;;;;;10.50;4.80;;;23.30;94.00;;;;;;5034379;28;20507;-79
2022/06/17 09:43:37;;;;;;;4.78;3.42;;;23.30;94.80;;;;;;5019232;28;20582;-78
2022/06/17 09:46:13;;;;;;;5.47;3.67;;;23.40;95.30;;;;;;5022965;28;20053;-72
2022/06/17 09:48:44;;;;;;;6.70;4.05;;;23.40;95.50;;;;;;5020506;28;20051;-73
2022/06/17 09:51:17;;;;;;;9.05;4.50;;;23.40;95.00;;;;;;5011914;28;20136;-73
2022/06/17 09:53:58;;;;;;;12.50;4.25;;;23.40;94.90;;;;;;5013759;28;20046;-73
2022/06/17 09:56:47;;;;;;;6.53;3.75;;;23.50;95.10;;;;;;5021925;28;20386;-73
2022/06/17 09:59:22;;;;;;;10.80;4.55;;;23.60;95.20;;;;;;5019099;28;20038;-72
2022/06/17 10:01:48;;;;;;;7.43;4.05;;;23.70;95.20;;;;;;5006779;28;20033;-72
2022/06/17 10:04:15;;;;;;;6.28;4.10;;;23.90;94.80;;;;;;4996116;28;20069;-71
2022/06/17 10:06:44;;;;;;;6.35;3.65;;;23.90;94.30;;;;;;5023488;28;20078;-70
2022/06/17 10:09:31;;;;;;;15.32;6.00;;;24.00;94.30;;;;;;5034113;28;20502;-70
2022/06/17 10:12:03;;;;;;;6.50;4.03;;;24.10;94.40;;;;;;5029816;28;20051;-69
2022/06/17 10:14:51;;;;;;;8.77;6.47;;;24.10;93.40;;;;;;5007366;28;20034;-70
2022/06/17 10:20:48;;;;;;;6.03;4.00;;;24.00;92.50;;;;;;5028951;28;20132;-72
2022/06/17 10:23:32;;;;;;;5.47;3.60;;;24.00;92.80;;;;;;5027652;28;20112;-76
2022/06/17 10:26:22;;;;;;;9.20;5.25;;;24.00;93.00;;;;;;5024477;28;20048;-75
2022/06/17 10:29:22;;;;;;;26.35;16.17;;;24.00;91.90;;;;;;4995987;28;20037;-74
2022/06/17 10:31:48;;;;;;;8.43;4.72;;;23.90;92.60;;;;;;5022720;28;20441;-72
2022/06/17 10:34:22;;;;;;;12.73;8.15;;;23.90;92.60;;;;;;5015457;28;20490;-73
2022/06/17 10:36:52;;;;;;;87.32;58.30;;;23.90;92.60;;;;;;5020058;28;20041;-71
2022/06/17 10:39:20;;;;;;;13.40;6.45;;;24.00;93.10;;;;;;5028818;28;20037;-72
2022/06/17 10:41:46;;;;;;;8.80;4.15;;;24.10;93.20;;;;;;4999712;28;20045;-73
2022/06/17 10:44:14;;;;;;;12.02;4.57;;;24.20;93.30;;;;;;5015822;28;20045;-74
2022/06/17 10:46:46;;;;;;;5.68;4.03;;;24.20;92.90;;;;;;5021442;28;20038;-69
2022/06/17 10:49:18;;;;;;;6.93;4.07;;;24.20;92.70;;;;;;5018640;28;20060;-68
2022/06/17 10:51:47;;;;;;;6.68;3.63;;;24.20;91.90;;;;;;5021719;28;20033;-68
2022/06/17 10:54:23;;;;;;;6.70;3.80;;;24.10;92.00;;;;;;4995463;28;20044;-68
2022/06/17 10:57:05;;;;;;;5.50;3.72;;;24.10;92.50;;;;;;5023224;28;20037;-68
2022/06/17 10:59:41;;;;;;;5.68;4.10;;;24.00;91.00;;;;;;5023548;28;20464;-68
2022/06/17 11:02:23;;;;;;;6.72;3.97;;;23.90;91.30;;;;;;5024722;28;20060;-68
2022/06/17 11:05:01;;;;;;;5.15;4.40;;;23.90;91.20;;;;;;5035889;28;20052;-68
2022/06/17 11:07:37;;;;;;;7.55;4.47;;;23.90;91.70;;;;;;5028425;28;20039;-68
2022/06/17 11:10:14;;;;;;;7.38;4.43;;;24.00;92.00;;;;;;5030063;28;20099;-68
2022/06/17 11:13:02;;;;;;;7.28;3.70;;;24.10;91.80;;;;;;5008127;28;20263;-68
2022/06/17 11:15:45;;;;;;;6.68;4.80;;;24.10;92.20;;;;;;5015764;28;20077;-69
2022/06/17 11:18:17;;;;;;;5.15;3.72;;;24.20;92.10;;;;;;5016104;28;20037;-70
2022/06/17 11:20:55;;;;;;;7.80;3.95;;;24.30;92.60;;;;;;5016700;28;20126;-71
2022/06/17 11:23:25;;;;;;;5.43;3.80;;;24.50;92.90;;;;;;5001456;28;20041;-73
2022/06/17 11:26:07;;;;;;;6.43;3.78;;;24.70;92.60;;;;;;5021605;28;20570;-71
2022/06/17 11:28:35;;;;;;;7.10;3.72;;;24.90;91.90;;;;;;5032035;28;20052;-73
2022/06/17 11:31:04;;;;;;;7.60;4.60;;;25.00;92.30;;;;;;5028526;28;20041;-72
2022/06/17 11:33:40;;;;;;;8.48;4.78;;;25.00;91.60;;;;;;5016754;28;20156;-72
2022/06/17 11:36:29;;;;;;;11.30;5.05;;;24.90;91.10;;;;;;5022928;28;20045;-72
2022/06/17 11:39:21;;;;;;;6.90;4.00;;;25.00;91.00;;;;;;5030269;28;20621;-71
2022/06/17 11:41:47;;;;;;;;;;;25.00;90.90;;;;;;4997920;28;20132;-70
2022/06/17 11:44:19;;;;;;;7.68;4.65;;;24.90;90.30;;;;;;5026500;28;20079;-70
2022/06/17 11:46:58;;;;;;;7.75;3.75;;;24.90;90.60;;;;;;5022647;28;20065;-69
2022/06/17 11:49:25;;;;;;;10.55;4.25;;;24.90;90.30;;;;;;5018320;28;20116;-69
2022/06/17 11:52:01;;;;;;;7.47;4.00;;;24.80;90.10;;;;;;5025647;28;20053;-70
2022/06/17 11:54:45;;;;;;;7.63;3.70;;;24.80;90.40;;;;;;5028912;28;20046;-70
2022/06/17 11:57:20;;;;;;;5.35;3.50;;;24.80;90.60;;;;;;5034309;28;20465;-70
2022/06/17 11:59:49;;;;;;;11.20;4.18;;;24.80;91.10;;;;;;5014350;28;20049;-69
2022/06/17 12:02:16;;;;;;;5.50;3.92;;;24.90;91.00;;;;;;5029540;28;20081;-69
2022/06/17 12:04:51;;;;;;;5.85;3.92;;;25.00;90.50;;;;;;4998887;28;20172;-69
2022/06/17 12:07:32;;;;;;;7.55;4.25;;;25.10;90.70;;;;;;5034937;28;20037;-69
2022/06/17 12:10:09;;;;;;;8.93;4.18;;;25.10;90.30;;;;;;5026045;28;20049;-70
2022/06/17 12:12:36;;;;;;;8.18;4.68;;;25.10;89.80;;;;;;5024098;28;20046;-70
2022/06/17 12:15:12;;;;;;;8.70;4.03;;;25.10;90.40;;;;;;5004730;28;20052;-70
2022/06/17 12:17:39;;;;;;;10.30;4.28;;;25.20;91.10;;;;;;5019203;28;20146;-70
2022/06/17 12:20:44;;;;;;;7.97;3.97;;;25.20;90.60;;;;;;5013010;28;20117;-70
2022/06/17 12:23:26;;;;;;;8.63;3.53;;;25.30;90.80;;;;;;4995422;28;20052;-70
2022/06/17 12:26:05;;;;;;;9.63;4.07;;;25.60;90.50;;;;;;5010809;28;20040;-70
2022/06/17 12:28:33;;;;;;;7.45;3.85;;;25.80;89.40;;;;;;5034967;28;20039;-70
2022/06/17 12:31:31;;;;;;;8.45;3.65;;;26.00;89.20;;;;;;5027687;28;20411;-70
2022/06/17 12:34:18;;;;;;;6.82;3.53;;;26.30;87.00;;;;;;5027475;28;20459;-70
2022/06/17 12:36:50;;;;;;;9.05;4.35;;;26.50;85.50;;;;;;5026698;28;20465;-71
2022/06/17 12:39:23;;;;;;;6.00;3.67;;;26.50;85.50;;;;;;5032737;28;20379;-71
2022/06/17 12:42:08;;;;;;;6.93;4.00;;;26.60;84.80;;;;;;5028530;28;20037;-70
2022/06/17 12:44:53;;;;;;;6.90;3.45;;;26.50;82.40;;;;;;5019592;28;20044;-70
2022/06/17 12:47:26;;;;;;;5.00;3.75;;;26.50;84.70;;;;;;5019682;28;20034;-71
2022/06/17 12:53:28;;;;;;;7.03;3.53;;;26.50;82.40;;;;;;5017791;28;20050;-70
2022/06/17 12:55:58;;;;;;;7.53;3.25;;;26.50;82.10;;;;;;5016550;28;20164;-71
2022/06/17 12:58:39;;;;;;;4.50;3.33;;;26.60;83.60;;;;;;5016665;28;20124;-71
2022/06/17 13:01:20;;;;;;;7.30;3.33;;;26.60;83.20;;;;;;5016474;28;20037;-70
2022/06/17 13:04:10;;;;;;;4.43;3.13;;;26.80;84.90;;;;;;5020037;28;20045;-70
2022/06/17 13:06:48;;;;;;;7.28;3.72;;;26.90;85.40;;;;;;5026915;28;20087;-70
2022/06/17 13:09:38;;;;;;;6.68;3.20;;;26.90;83.20;;;;;;5008414;28;20041;-71
2022/06/17 13:12:26;;;;;;;6.60;3.53;;;26.90;83.40;;;;;;5031017;28;20068;-70
2022/06/17 13:15:02;;;;;;;7.72;3.67;;;27.00;84.90;;;;;;5019734;28;20041;-70
2022/06/17 13:17:53;;;;;;;5.97;3.38;;;27.20;80.20;;;;;;5030111;28;20041;-71
2022/06/17 13:20:40;;;;;;;6.97;3.15;;;27.10;79.70;;;;;;5029551;28;20049;-71
2022/06/17 13:23:23;;;;;;;5.68;3.13;;;27.10;80.60;;;;;;5027440;28;20045;-71
2022/06/17 13:26:40;;;;;;;6.63;3.05;;;27.10;79.40;;;;;;5035992;28;20045;-71
2022/06/17 13:29:43;;;;;;;5.85;3.38;;;27.20;80.50;;;;;;5011429;28;20068;-69
2022/06/17 13:32:23;;;;;;;7.32;3.78;;;27.40;79.60;;;;;;5021274;28;20033;-70
2022/06/17 13:35:17;;;;;;;8.75;3.60;;;27.50;80.10;;;;;;5027650;28;20530;-71
2022/06/17 13:37:53;;;;;;;8.25;3.38;;;27.80;79.70;;;;;;5023848;28;20033;-72
2022/06/17 13:40:33;;;;;;;4.50;3.60;;;28.00;79.50;;;;;;5030375;28;20033;-71
2022/06/17 13:43:05;;;;;;;5.80;3.50;;;28.20;79.90;;;;;;5024149;28;20034;-71
2022/06/17 13:45:36;;;;;;;;;;;28.40;80.80;;;;;;5025705;28;20033;-72